createdAt,value
2024-02-28T00:01:24.898Z,3.35
2024-02-28T00:05:27.022Z,3.38
2024-02-28T00:09:29.361Z,3.34
2024-02-28T00:13:32.866Z,3.23
2024-02-28T00:17:34.969Z,3.41
2024-02-28T00:21:37.100Z,3.28
2024-02-28T00:25:39.364Z,3.29
2024-02-28T00:29:43.572Z,3.31
2024-02-28T00:33:45.543Z,3.33
2024-02-28T00:37:47.962Z,3.43
2024-02-28T00:41:50.182Z,3.27
2024-02-28T00:45:53.910Z,3.40
2024-02-28T00:49:56.030Z,3.38
2024-02-28T00:53:58.124Z,3.47
2024-02-28T00:58:00.480Z,3.28
2024-02-28T01:02:04.170Z,3.35
2024-02-28T01:06:06.455Z,3.42
2024-02-28T01:10:09.177Z,3.39
2024-02-28T01:14:11.388Z,3.35
2024-02-28T01:18:15.031Z,3.37
2024-02-28T01:22:17.136Z,3.32
2024-02-28T01:26:19.015Z,3.35
2024-02-28T01:30:21.052Z,3.33
2024-02-28T01:34:24.396Z,3.35
2024-02-28T01:38:26.651Z,3.25
2024-02-28T01:42:29.129Z,3.23
2024-02-28T01:46:31.751Z,3.33
2024-02-28T01:50:35.231Z,3.22
2024-02-28T01:54:37.559Z,3.33
2024-02-28T01:58:41.026Z,3.32
2024-02-28T02:02:43.540Z,3.31
2024-02-28T02:06:47.100Z,3.38
2024-02-28T02:10:49.168Z,3.36
2024-02-28T02:14:51.572Z,3.27
2024-02-28T02:18:53.760Z,3.19
2024-02-28T02:22:57.553Z,3.27
2024-02-28T02:26:59.820Z,3.25
2024-02-28T02:31:02.000Z,3.17
2024-02-28T02:35:05.140Z,3.13
2024-02-28T02:39:08.668Z,3.11
2024-02-28T02:43:10.666Z,2.97
2024-02-28T02:47:12.768Z,2.92
2024-02-28T02:51:14.733Z,3.10
2024-02-28T02:55:18.155Z,2.94
2024-02-28T02:59:20.289Z,3.05
2024-02-28T03:03:22.482Z,2.97
2024-02-28T03:07:24.764Z,2.85
2024-02-28T03:11:28.302Z,2.85
2024-02-28T03:15:30.380Z,2.86
2024-02-28T03:19:32.647Z,2.86
2024-02-28T03:23:35.005Z,2.81
2024-02-28T03:27:38.434Z,2.85
2024-02-28T03:31:40.240Z,2.97
2024-02-28T03:35:42.409Z,2.89
2024-02-28T03:39:44.525Z,2.74
2024-02-28T03:43:47.924Z,2.84
2024-02-28T03:47:50.487Z,2.73
2024-02-28T03:51:52.560Z,2.69
2024-02-28T03:55:54.608Z,2.78
2024-02-28T03:59:58.048Z,2.61
2024-02-28T04:04:00.193Z,2.73
2024-02-28T04:08:04.623Z,2.51
2024-02-28T04:12:09.875Z,2.60
2024-02-28T04:16:13.859Z,2.50
2024-02-28T04:20:16.415Z,2.58
2024-02-28T04:24:18.659Z,2.68
2024-02-28T04:28:20.839Z,2.66
2024-02-28T04:32:24.060Z,2.63
2024-02-28T04:36:26.085Z,2.72
2024-02-28T04:40:28.041Z,2.72
2024-02-28T04:44:30.824Z,2.71
2024-02-28T04:48:34.433Z,2.84
2024-02-28T04:52:36.577Z,2.58
2024-02-28T04:56:41.151Z,2.51
2024-02-28T05:00:43.174Z,2.64
2024-02-28T05:04:46.617Z,2.63
2024-02-28T05:08:48.705Z,2.60
2024-02-28T05:12:51.077Z,2.66
2024-02-28T05:16:53.383Z,2.60
2024-02-28T05:20:57.285Z,2.61
2024-02-28T05:24:59.349Z,2.61
2024-02-28T05:29:01.429Z,2.47
2024-02-28T05:33:04.897Z,2.51
2024-02-28T05:37:08.680Z,2.50
2024-02-28T05:41:10.900Z,2.64
2024-02-28T05:45:12.965Z,2.51
2024-02-28T05:49:14.971Z,2.48
2024-02-28T05:53:18.546Z,2.39
2024-02-28T05:57:20.677Z,2.40
2024-02-28T06:01:22.943Z,2.45
2024-02-28T06:05:25.085Z,2.60
2024-02-28T06:09:28.607Z,2.50
2024-02-28T06:13:30.948Z,2.48
2024-02-28T06:17:32.914Z,2.46
2024-02-28T06:21:35.355Z,2.52
2024-02-28T06:25:38.647Z,2.47
2024-02-28T06:29:40.909Z,2.51
2024-02-28T06:33:43.017Z,2.55
2024-02-28T06:37:45.160Z,2.43
2024-02-28T06:41:48.660Z,2.39
2024-02-28T06:45:50.962Z,2.38
2024-02-28T06:49:53.022Z,2.37
2024-02-28T06:53:55.282Z,2.39
2024-02-28T06:57:59.111Z,2.39
2024-02-28T07:02:01.441Z,2.33
2024-02-28T07:06:03.846Z,2.42
2024-02-28T07:10:07.289Z,2.29
2024-02-28T07:14:11.040Z,2.36
2024-02-28T07:18:13.338Z,2.35
2024-02-28T07:22:15.678Z,2.35
2024-02-28T07:26:26.508Z,2.40
2024-02-28T07:30:32.025Z,2.48
2024-02-28T07:34:34.170Z,2.29
2024-02-28T07:38:36.174Z,2.39
2024-02-28T07:42:38.167Z,2.44
2024-02-28T07:46:43.663Z,2.32
2024-02-28T07:50:46.076Z,2.35
2024-02-28T07:54:48.097Z,2.47
2024-02-28T07:58:50.316Z,2.47
2024-02-28T08:02:53.845Z,2.36
2024-02-28T08:06:56.157Z,2.56
2024-02-28T08:10:58.286Z,2.57
2024-02-28T08:15:00.403Z,2.61
2024-02-28T08:19:04.272Z,2.42
2024-02-28T08:23:06.590Z,2.52
2024-02-28T08:27:08.548Z,2.58
2024-02-28T08:31:11.002Z,2.69
2024-02-28T08:35:14.722Z,2.60
2024-02-28T08:39:16.907Z,2.63
2024-02-28T08:43:18.974Z,2.59
2024-02-28T08:47:24.310Z,2.70
2024-02-28T08:51:27.872Z,2.58
2024-02-28T08:55:30.020Z,2.50
2024-02-28T08:59:32.134Z,2.67
2024-02-28T09:03:34.309Z,2.70
2024-02-28T09:07:37.770Z,2.77
2024-02-28T09:11:39.936Z,2.67
2024-02-28T09:15:42.074Z,2.82
2024-02-28T09:19:44.110Z,2.68
2024-02-28T09:23:47.291Z,2.89
2024-02-28T09:27:49.208Z,2.72
2024-02-28T09:31:52.040Z,2.78
2024-02-28T09:35:54.246Z,2.86
2024-02-28T09:39:57.768Z,2.62
2024-02-28T09:44:03.402Z,2.75
2024-02-28T09:48:07.097Z,2.46
2024-02-28T09:52:09.233Z,2.46
2024-02-28T09:56:14.208Z,2.51
2024-02-28T10:00:19.778Z,2.48
2024-02-28T10:04:22.445Z,2.55
2024-02-28T10:08:24.615Z,2.53
2024-02-28T10:12:28.151Z,2.53
2024-02-28T10:16:30.925Z,2.44
2024-02-28T10:20:33.610Z,2.35
2024-02-28T10:24:36.077Z,2.31
2024-02-28T10:28:40.227Z,2.25
2024-02-28T10:32:49.713Z,2.33
2024-02-28T10:36:52.957Z,2.44
2024-02-28T10:40:55.969Z,2.26
2024-02-28T10:45:10.283Z,2.16
2024-02-28T10:49:21.029Z,2.18
2024-02-28T10:53:29.161Z,2.15
2024-02-28T10:57:34.676Z,2.29
2024-02-28T11:01:40.342Z,2.39
2024-02-28T11:05:43.591Z,2.35
2024-02-28T11:09:46.417Z,2.31
2024-02-28T11:13:55.436Z,2.11
2024-02-28T11:18:08.691Z,2.10
2024-02-28T11:22:12.948Z,2.40
2024-02-28T11:26:15.354Z,2.44
2024-02-28T11:30:17.571Z,2.43
2024-02-28T11:34:21.541Z,2.43
2024-02-28T11:38:25.818Z,2.23
2024-02-28T11:42:28.042Z,2.23
2024-02-28T11:46:30.316Z,2.26
2024-02-28T11:50:33.526Z,2.45
2024-02-28T11:54:35.719Z,2.44
2024-02-28T11:58:37.782Z,2.56
2024-02-28T12:02:40.056Z,2.66
2024-02-28T12:06:44.155Z,2.62
2024-02-28T12:10:46.749Z,2.56
2024-02-28T12:14:49.430Z,2.81
2024-02-28T12:18:51.476Z,3.14
2024-02-28T12:22:55.125Z,3.20
2024-02-28T12:26:57.380Z,3.38
2024-02-28T12:30:59.684Z,3.32
2024-02-28T12:35:01.984Z,3.05
2024-02-28T12:39:05.601Z,3.02
2024-02-28T12:43:07.791Z,3.16
2024-02-28T12:47:10.000Z,3.37
2024-02-28T12:51:21.541Z,3.27
2024-02-28T12:55:25.106Z,3.13
2024-02-28T12:59:27.430Z,2.99
2024-02-28T13:03:29.703Z,3.03
2024-02-28T13:07:31.926Z,2.99
2024-02-28T13:11:36.200Z,2.87
2024-02-28T13:15:38.419Z,3.02
2024-02-28T13:19:40.350Z,3.21
2024-02-28T13:23:42.461Z,3.55
2024-02-28T13:27:46.318Z,3.71
2024-02-28T13:31:48.529Z,3.84
2024-02-28T13:35:50.562Z,4.24
2024-02-28T13:39:52.662Z,4.32
2024-02-28T13:43:56.320Z,4.12
2024-02-28T13:47:58.473Z,5.92
2024-02-28T13:52:00.810Z,6.57
2024-02-28T13:56:02.978Z,5.47
2024-02-28T14:00:08.200Z,5.41
2024-02-28T14:04:09.806Z,5.69
2024-02-28T14:08:11.872Z,5.66
2024-02-28T14:12:14.996Z,5.48
2024-02-28T14:16:18.687Z,5.13
2024-02-28T14:20:20.363Z,4.36
2024-02-28T14:24:22.293Z,5.08
2024-02-28T14:28:24.449Z,5.71
2024-02-28T14:32:28.167Z,4.33
2024-02-28T14:36:30.238Z,4.05
2024-02-28T14:40:32.254Z,4.11
2024-02-28T14:44:34.947Z,4.12
2024-02-28T14:48:38.585Z,4.11
2024-02-28T14:52:42.116Z,3.88
2024-02-28T14:56:44.271Z,4.06
2024-02-28T15:00:46.265Z,4.11
2024-02-28T15:04:49.914Z,4.16
2024-02-28T15:08:52.150Z,3.96
2024-02-28T15:12:54.545Z,3.88
2024-02-28T15:16:57.028Z,3.94
2024-02-28T15:21:02.632Z,3.99
2024-02-28T15:25:06.114Z,4.02
2024-02-28T15:29:08.229Z,4.04
2024-02-28T15:33:10.410Z,3.89
2024-02-28T15:37:13.801Z,3.75
2024-02-28T15:41:16.055Z,3.68
2024-02-28T15:45:18.510Z,3.64
2024-02-28T15:49:28.466Z,3.53
2024-02-28T15:53:36.982Z,3.45
2024-02-28T15:57:39.154Z,3.50
2024-02-28T16:01:41.752Z,3.49
2024-02-28T16:05:43.725Z,3.25
2024-02-28T16:09:47.289Z,2.98
2024-02-28T16:13:49.399Z,2.75
2024-02-28T16:17:51.497Z,2.59
2024-02-28T16:21:53.633Z,2.40
2024-02-28T16:25:57.044Z,2.40
2024-02-28T16:29:59.180Z,2.13
2024-02-28T16:34:01.338Z,1.90
2024-02-28T16:38:03.502Z,1.62
2024-02-28T16:42:07.376Z,1.39
2024-02-28T16:46:09.507Z,1.28
2024-02-28T16:50:11.528Z,1.16
2024-02-28T16:54:13.654Z,1.05
2024-02-28T16:58:17.242Z,0.91
2024-02-28T17:02:19.334Z,0.86
2024-02-28T17:06:21.965Z,0.71
2024-02-28T17:10:24.466Z,0.54
2024-02-28T17:14:28.290Z,0.47
2024-02-28T17:18:30.957Z,0.31
2024-02-28T17:22:33.089Z,0.20
2024-02-28T17:26:37.187Z,0.28
2024-02-28T17:30:41.834Z,0.11
2024-02-28T17:34:44.089Z,-0.03
2024-02-28T17:38:46.345Z,-0.14
2024-02-28T17:42:48.614Z,-0.27
2024-02-28T17:46:52.046Z,-0.39
2024-02-28T17:50:53.987Z,-0.47
2024-02-28T17:54:55.804Z,-0.54
2024-02-28T17:58:57.889Z,-0.50
2024-02-28T18:03:03.891Z,-0.35
2024-02-28T18:07:09.402Z,-0.47
2024-02-28T18:11:11.566Z,-0.65
2024-02-28T18:15:13.537Z,-0.70
2024-02-28T18:19:16.954Z,-0.61
2024-02-28T18:23:27.308Z,-0.58
2024-02-28T18:27:33.200Z,-0.65
2024-02-28T18:31:35.356Z,-0.71
2024-02-28T18:35:38.838Z,-0.78
2024-02-28T18:39:41.245Z,-0.82
2024-02-28T18:43:44.203Z,-0.91
2024-02-28T18:47:46.342Z,-0.89
2024-02-28T18:51:49.878Z,-0.79
2024-02-28T18:55:54.447Z,-0.74
2024-02-28T18:59:56.628Z,-0.70
2024-02-28T19:03:58.735Z,-0.60
2024-02-28T19:08:02.495Z,-0.71
2024-02-28T19:12:04.736Z,-0.78
2024-02-28T19:16:07.107Z,-0.48
2024-02-28T19:20:09.898Z,-0.33
2024-02-28T19:24:12.864Z,-0.20
2024-02-28T19:28:14.660Z,0.17
2024-02-28T19:32:16.433Z,0.47
2024-02-28T19:36:18.151Z,0.52
2024-02-28T19:40:21.268Z,0.35
2024-02-28T19:44:23.291Z,0.36
2024-02-28T19:48:25.061Z,0.20
2024-02-28T19:52:26.912Z,0.26
2024-02-28T19:56:29.990Z,0.36
2024-02-28T20:00:31.834Z,0.41
2024-02-28T20:04:33.460Z,0.51
2024-02-28T20:08:35.236Z,0.53
2024-02-28T20:12:41.605Z,0.53
2024-02-28T20:16:43.416Z,0.50
2024-02-28T20:20:45.457Z,0.50
2024-02-28T20:24:47.245Z,0.52
2024-02-28T20:28:50.631Z,0.39
2024-02-28T20:32:52.370Z,0.31
2024-02-28T20:36:54.208Z,0.23
2024-02-28T20:40:55.874Z,0.25
2024-02-28T20:44:58.880Z,0.33
2024-02-28T20:49:00.731Z,0.41
2024-02-28T20:53:02.455Z,0.38
2024-02-28T20:57:12.434Z,0.28
2024-02-28T21:01:19.802Z,0.26
2024-02-28T21:05:21.468Z,0.24
2024-02-28T21:09:23.946Z,0.20
2024-02-28T21:13:25.664Z,0.18
2024-02-28T21:17:29.647Z,0.15
2024-02-28T21:21:31.625Z,0.15
2024-02-28T21:25:33.337Z,0.07
2024-02-28T21:29:35.505Z,-0.02
2024-02-28T21:33:38.892Z,-0.04
2024-02-28T21:37:40.856Z,-0.23
2024-02-28T21:41:42.690Z,-0.39
2024-02-28T21:45:44.485Z,-0.58
2024-02-28T21:49:47.735Z,-0.52
2024-02-28T21:53:49.510Z,-0.70
2024-02-28T21:57:51.209Z,-0.56
2024-02-28T22:01:52.911Z,-0.49
2024-02-28T22:05:56.014Z,-0.50
2024-02-28T22:09:58.040Z,-0.59
2024-02-28T22:13:59.671Z,-0.51
2024-02-28T22:18:01.542Z,-0.46
2024-02-28T22:22:05.152Z,-0.47
2024-02-28T22:26:06.933Z,-0.50
2024-02-28T22:30:09.149Z,-0.54
2024-02-28T22:34:11.558Z,-0.59
2024-02-28T22:38:15.358Z,-0.68
2024-02-28T22:42:17.903Z,-0.68
2024-02-28T22:46:20.334Z,-0.72
2024-02-28T22:50:22.177Z,-0.75
2024-02-28T22:54:25.469Z,-0.72
2024-02-28T22:58:28.302Z,-0.77
2024-02-28T23:02:30.581Z,-0.88
2024-02-28T23:06:32.285Z,-1.05
2024-02-28T23:10:35.655Z,-0.99
2024-02-28T23:14:37.545Z,-0.94
2024-02-28T23:18:39.549Z,-0.87
2024-02-28T23:22:41.456Z,-0.97
2024-02-28T23:26:45.212Z,-1.10
2024-02-28T23:30:47.309Z,-1.20
2024-02-28T23:34:49.508Z,-1.49
2024-02-28T23:38:51.738Z,-1.47
2024-02-28T23:42:55.177Z,-1.69
2024-02-28T23:46:57.818Z,-1.89
2024-02-28T23:51:00.169Z,-2.06
2024-02-28T23:55:02.122Z,-2.14
2024-02-28T23:59:05.561Z,-2.23
